sensor_id;sensor_type;location;lat;lon;timestamp;temperature;humidity
12907;DHT22;6521;50.498;8.474;2022-07-03T00:02:27;17.38;65.71
12907;DHT22;6521;50.498;8.474;2022-07-03T00:04:58;17.35;65.85
12907;DHT22;6521;50.498;8.474;2022-07-03T00:07:29;17.40;65.65
12907;DHT22;6521;50.498;8.474;2022-07-03T00:09:59;17.33;66.01
12907;DHT22;6521;50.498;8.474;2022-07-03T00:12:30;17.30;66.05
12907;DHT22;6521;50.498;8.474;2022-07-03T00:15:01;17.27;66.14
12907;DHT22;6521;50.498;8.474;2022-07-03T00:17:32;17.17;66.32
12907;DHT22;6521;50.498;8.474;2022-07-03T00:20:03;17.10;66.49
12907;DHT22;6521;50.498;8.474;2022-07-03T00:22:37;17.06;66.67
12907;DHT22;6521;50.498;8.474;2022-07-03T00:25:10;17.02;67.03
12907;DHT22;6521;50.498;8.474;2022-07-03T00:27:43;16.97;67.01
12907;DHT22;6521;50.498;8.474;2022-07-03T00:30:15;16.99;67.11
12907;DHT22;6521;50.498;8.474;2022-07-03T00:32:47;16.97;67.01
12907;DHT22;6521;50.498;8.474;2022-07-03T00:35:19;16.92;67.25
12907;DHT22;6521;50.498;8.474;2022-07-03T00:37:50;16.92;67.35
12907;DHT22;6521;50.498;8.474;2022-07-03T00:40:21;16.86;67.69
12907;DHT22;6521;50.498;8.474;2022-07-03T00:42:52;16.86;67.73
12907;DHT22;6521;50.498;8.474;2022-07-03T00:45:25;16.85;67.73
12907;DHT22;6521;50.498;8.474;2022-07-03T00:47:56;16.86;67.61
12907;DHT22;6521;50.498;8.474;2022-07-03T00:50:37;16.83;67.69
12907;DHT22;6521;50.498;8.474;2022-07-03T00:53:10;16.85;67.55
12907;DHT22;6521;50.498;8.474;2022-07-03T00:55:44;16.77;67.69
12907;DHT22;6521;50.498;8.474;2022-07-03T00:58:17;16.73;68.04
12907;DHT22;6521;50.498;8.474;2022-07-03T01:00:51;16.66;68.24
12907;DHT22;6521;50.498;8.474;2022-07-03T01:03:24;16.56;68.71
12907;DHT22;6521;50.498;8.474;2022-07-03T01:06:03;16.51;69.02
12907;DHT22;6521;50.498;8.474;2022-07-03T01:08:50;16.54;69.14
12907;DHT22;6521;50.498;8.474;2022-07-03T01:17:05;16.40;69.55
12907;DHT22;6521;50.498;8.474;2022-07-03T01:19:42;16.38;69.65
12907;DHT22;6521;50.498;8.474;2022-07-03T01:22:43;16.35;70.23
12907;DHT22;6521;50.498;8.474;2022-07-03T01:28:13;16.41;69.75
12907;DHT22;6521;50.498;8.474;2022-07-03T01:30:53;16.38;69.83
12907;DHT22;6521;50.498;8.474;2022-07-03T01:33:26;16.37;69.71
12907;DHT22;6521;50.498;8.474;2022-07-03T01:36:07;16.31;70.11
12907;DHT22;6521;50.498;8.474;2022-07-03T01:38:39;16.24;70.14
12907;DHT22;6521;50.498;8.474;2022-07-03T01:41:12;16.22;70.21
12907;DHT22;6521;50.498;8.474;2022-07-03T01:43:50;16.18;69.99
12907;DHT22;6521;50.498;8.474;2022-07-03T01:46:31;16.16;69.88
12907;DHT22;6521;50.498;8.474;2022-07-03T01:49:03;16.14;69.98
12907;DHT22;6521;50.498;8.474;2022-07-03T01:51:38;16.11;70.01
12907;DHT22;6521;50.498;8.474;2022-07-03T01:54:10;16.08;70.31
12907;DHT22;6521;50.498;8.474;2022-07-03T01:56:41;16.14;69.89
12907;DHT22;6521;50.498;8.474;2022-07-03T01:59:15;16.04;70.48
12907;DHT22;6521;50.498;8.474;2022-07-03T02:01:52;16.01;70.53
12907;DHT22;6521;50.498;8.474;2022-07-03T02:04:32;16.03;70.81
12907;DHT22;6521;50.498;8.474;2022-07-03T02:09:52;15.91;71.20
12907;DHT22;6521;50.498;8.474;2022-07-03T02:12:27;15.90;71.44
12907;DHT22;6521;50.498;8.474;2022-07-03T02:15:08;15.83;71.59
12907;DHT22;6521;50.498;8.474;2022-07-03T02:17:45;15.80;71.18
12907;DHT22;6521;50.498;8.474;2022-07-03T02:20:16;15.69;71.40
12907;DHT22;6521;50.498;8.474;2022-07-03T02:22:57;15.67;71.56
12907;DHT22;6521;50.498;8.474;2022-07-03T02:25:36;15.63;71.73
12907;DHT22;6521;50.498;8.474;2022-07-03T02:28:33;15.56;72.09
12907;DHT22;6521;50.498;8.474;2022-07-03T02:31:07;15.46;72.36
12907;DHT22;6521;50.498;8.474;2022-07-03T02:33:41;15.45;72.60
12907;DHT22;6521;50.498;8.474;2022-07-03T02:36:13;15.38;72.79
12907;DHT22;6521;50.498;8.474;2022-07-03T02:38:46;15.32;72.98
12907;DHT22;6521;50.498;8.474;2022-07-03T02:41:24;15.28;73.12
12907;DHT22;6521;50.498;8.474;2022-07-03T02:44:04;15.29;73.25
12907;DHT22;6521;50.498;8.474;2022-07-03T02:46:42;15.24;73.40
12907;DHT22;6521;50.498;8.474;2022-07-03T02:55:48;15.18;73.69
12907;DHT22;6521;50.498;8.474;2022-07-03T02:58:24;15.18;73.68
12907;DHT22;6521;50.498;8.474;2022-07-03T03:07:14;15.12;73.73
12907;DHT22;6521;50.498;8.474;2022-07-03T03:09:47;15.05;73.83
12907;DHT22;6521;50.498;8.474;2022-07-03T03:12:29;15.05;73.73
12907;DHT22;6521;50.498;8.474;2022-07-03T03:15:02;15.02;73.36
12907;DHT22;6521;50.498;8.474;2022-07-03T03:17:46;15.02;73.60
12907;DHT22;6521;50.498;8.474;2022-07-03T03:20:26;15.05;73.54
12907;DHT22;6521;50.498;8.474;2022-07-03T03:25:46;15.01;73.75
12907;DHT22;6521;50.498;8.474;2022-07-03T03:28:18;15.04;73.77
12907;DHT22;6521;50.498;8.474;2022-07-03T03:30:49;15.04;73.65
12907;DHT22;6521;50.498;8.474;2022-07-03T03:33:20;15.04;73.58
12907;DHT22;6521;50.498;8.474;2022-07-03T03:35:51;15.01;73.64
12907;DHT22;6521;50.498;8.474;2022-07-03T03:38:22;14.99;73.60
12907;DHT22;6521;50.498;8.474;2022-07-03T03:40:53;14.95;73.72
12907;DHT22;6521;50.498;8.474;2022-07-03T03:43:24;14.94;73.80
12907;DHT22;6521;50.498;8.474;2022-07-03T03:45:55;14.94;73.79
12907;DHT22;6521;50.498;8.474;2022-07-03T03:48:29;14.98;73.81
12907;DHT22;6521;50.498;8.474;2022-07-03T03:51:01;14.98;73.79
12907;DHT22;6521;50.498;8.474;2022-07-03T03:53:32;14.94;73.87
12907;DHT22;6521;50.498;8.474;2022-07-03T03:56:08;14.91;73.77
12907;DHT22;6521;50.498;8.474;2022-07-03T03:58:40;14.91;73.66
12907;DHT22;6521;50.498;8.474;2022-07-03T04:01:12;14.95;73.69
12907;DHT22;6521;50.498;8.474;2022-07-03T04:03:42;14.92;73.78
12907;DHT22;6521;50.498;8.474;2022-07-03T04:06:13;14.97;73.87
12907;DHT22;6521;50.498;8.474;2022-07-03T04:08:44;15.04;73.34
12907;DHT22;6521;50.498;8.474;2022-07-03T04:11:14;15.07;73.05
12907;DHT22;6521;50.498;8.474;2022-07-03T04:13:45;15.12;73.11
12907;DHT22;6521;50.498;8.474;2022-07-03T04:16:16;15.19;73.31
12907;DHT22;6521;50.498;8.474;2022-07-03T04:18:47;15.32;73.42
12907;DHT22;6521;50.498;8.474;2022-07-03T04:21:17;15.40;73.97
12907;DHT22;6521;50.498;8.474;2022-07-03T04:23:48;15.49;73.39
12907;DHT22;6521;50.498;8.474;2022-07-03T04:26:19;15.57;73.13
12907;DHT22;6521;50.498;8.474;2022-07-03T04:28:49;15.63;72.86
12907;DHT22;6521;50.498;8.474;2022-07-03T04:31:20;15.70;72.81
12907;DHT22;6521;50.498;8.474;2022-07-03T04:33:50;15.79;72.66
12907;DHT22;6521;50.498;8.474;2022-07-03T04:36:21;15.87;72.23
12907;DHT22;6521;50.498;8.474;2022-07-03T04:38:52;15.87;71.77
12907;DHT22;6521;50.498;8.474;2022-07-03T04:41:23;15.85;72.78
12907;DHT22;6521;50.498;8.474;2022-07-03T04:43:53;15.93;73.35
12907;DHT22;6521;50.498;8.474;2022-07-03T04:46:24;15.97;74.00
12907;DHT22;6521;50.498;8.474;2022-07-03T04:48:55;16.00;74.23
12907;DHT22;6521;50.498;8.474;2022-07-03T04:51:25;15.97;74.76
12907;DHT22;6521;50.498;8.474;2022-07-03T04:53:56;16.04;74.35
12907;DHT22;6521;50.498;8.474;2022-07-03T04:56:27;16.08;73.91
12907;DHT22;6521;50.498;8.474;2022-07-03T04:58:57;16.10;73.84
12907;DHT22;6521;50.498;8.474;2022-07-03T05:01:28;16.11;73.86
12907;DHT22;6521;50.498;8.474;2022-07-03T05:03:59;16.13;73.90
12907;DHT22;6521;50.498;8.474;2022-07-03T05:06:29;16.16;73.79
12907;DHT22;6521;50.498;8.474;2022-07-03T05:09:00;16.14;73.24
12907;DHT22;6521;50.498;8.474;2022-07-03T05:11:30;16.20;73.39
12907;DHT22;6521;50.498;8.474;2022-07-03T05:14:02;16.20;73.36
12907;DHT22;6521;50.498;8.474;2022-07-03T05:16:33;16.20;73.49
12907;DHT22;6521;50.498;8.474;2022-07-03T05:19:04;16.25;73.57
12907;DHT22;6521;50.498;8.474;2022-07-03T05:21:35;16.28;73.73
12907;DHT22;6521;50.498;8.474;2022-07-03T05:24:06;16.35;73.88
12907;DHT22;6521;50.498;8.474;2022-07-03T05:26:37;16.37;74.07
12907;DHT22;6521;50.498;8.474;2022-07-03T05:29:07;16.45;73.63
12907;DHT22;6521;50.498;8.474;2022-07-03T05:31:38;16.47;72.85
12907;DHT22;6521;50.498;8.474;2022-07-03T05:34:09;16.55;72.31
12907;DHT22;6521;50.498;8.474;2022-07-03T05:36:40;16.59;72.11
12907;DHT22;6521;50.498;8.474;2022-07-03T05:39:10;16.65;72.52
12907;DHT22;6521;50.498;8.474;2022-07-03T05:42:00;16.71;72.41
12907;DHT22;6521;50.498;8.474;2022-07-03T05:44:31;16.77;72.47
12907;DHT22;6521;50.498;8.474;2022-07-03T05:47:02;16.80;72.38
12907;DHT22;6521;50.498;8.474;2022-07-03T05:49:33;16.86;72.26
12907;DHT22;6521;50.498;8.474;2022-07-03T05:52:04;16.86;71.55
12907;DHT22;6521;50.498;8.474;2022-07-03T05:54:40;16.90;71.16
12907;DHT22;6521;50.498;8.474;2022-07-03T05:57:11;16.93;71.34
12907;DHT22;6521;50.498;8.474;2022-07-03T05:59:42;16.93;71.62
12907;DHT22;6521;50.498;8.474;2022-07-03T06:02:12;17.00;71.94
12907;DHT22;6521;50.498;8.474;2022-07-03T06:04:43;17.02;72.44
12907;DHT22;6521;50.498;8.474;2022-07-03T06:07:14;17.04;72.61
12907;DHT22;6521;50.498;8.474;2022-07-03T06:09:46;17.09;72.90
12907;DHT22;6521;50.498;8.474;2022-07-03T06:12:18;17.16;72.78
12907;DHT22;6521;50.498;8.474;2022-07-03T06:14:49;17.20;72.65
12907;DHT22;6521;50.498;8.474;2022-07-03T06:17:19;17.24;71.61
12907;DHT22;6521;50.498;8.474;2022-07-03T06:19:50;17.33;71.24
12907;DHT22;6521;50.498;8.474;2022-07-03T06:22:20;17.37;71.12
12907;DHT22;6521;50.498;8.474;2022-07-03T06:24:51;17.45;71.29
12907;DHT22;6521;50.498;8.474;2022-07-03T06:27:21;17.51;70.61
12907;DHT22;6521;50.498;8.474;2022-07-03T06:29:52;17.60;70.19
12907;DHT22;6521;50.498;8.474;2022-07-03T06:32:23;17.64;69.63
12907;DHT22;6521;50.498;8.474;2022-07-03T06:34:53;17.77;69.39
12907;DHT22;6521;50.498;8.474;2022-07-03T06:37:25;17.88;67.99
12907;DHT22;6521;50.498;8.474;2022-07-03T06:39:55;17.91;68.40
12907;DHT22;6521;50.498;8.474;2022-07-03T06:42:26;17.98;67.30
12907;DHT22;6521;50.498;8.474;2022-07-03T06:44:57;18.10;67.25
12907;DHT22;6521;50.498;8.474;2022-07-03T06:47:28;18.19;66.95
12907;DHT22;6521;50.498;8.474;2022-07-03T06:49:58;18.28;66.51
12907;DHT22;6521;50.498;8.474;2022-07-03T06:52:29;18.37;67.05
12907;DHT22;6521;50.498;8.474;2022-07-03T06:55:00;18.50;66.70
12907;DHT22;6521;50.498;8.474;2022-07-03T06:57:30;18.57;67.66
12907;DHT22;6521;50.498;8.474;2022-07-03T07:00:03;18.71;66.95
12907;DHT22;6521;50.498;8.474;2022-07-03T07:02:33;18.77;66.62
12907;DHT22;6521;50.498;8.474;2022-07-03T07:05:05;18.94;65.88
12907;DHT22;6521;50.498;8.474;2022-07-03T07:07:35;18.95;66.05
12907;DHT22;6521;50.498;8.474;2022-07-03T07:10:07;19.04;66.41
12907;DHT22;6521;50.498;8.474;2022-07-03T07:12:37;19.09;66.74
12907;DHT22;6521;50.498;8.474;2022-07-03T07:15:08;19.19;66.07
12907;DHT22;6521;50.498;8.474;2022-07-03T07:17:39;19.28;65.06
12907;DHT22;6521;50.498;8.474;2022-07-03T07:20:10;19.33;65.00
12907;DHT22;6521;50.498;8.474;2022-07-03T07:22:40;19.38;65.80
12907;DHT22;6521;50.498;8.474;2022-07-03T07:25:11;19.48;66.23
12907;DHT22;6521;50.498;8.474;2022-07-03T07:27:42;19.56;65.03
12907;DHT22;6521;50.498;8.474;2022-07-03T07:30:12;19.66;63.86
12907;DHT22;6521;50.498;8.474;2022-07-03T07:32:43;19.67;63.60
12907;DHT22;6521;50.498;8.474;2022-07-03T07:35:14;19.73;63.90
12907;DHT22;6521;50.498;8.474;2022-07-03T07:37:44;19.84;64.10
12907;DHT22;6521;50.498;8.474;2022-07-03T07:40:15;19.94;62.55
12907;DHT22;6521;50.498;8.474;2022-07-03T07:42:46;20.11;62.84
12907;DHT22;6521;50.498;8.474;2022-07-03T07:45:17;20.25;62.71
12907;DHT22;6521;50.498;8.474;2022-07-03T07:47:48;20.39;62.00
12907;DHT22;6521;50.498;8.474;2022-07-03T07:50:19;20.52;61.33
12907;DHT22;6521;50.498;8.474;2022-07-03T07:52:50;20.65;61.95
12907;DHT22;6521;50.498;8.474;2022-07-03T07:55:20;20.76;60.97
12907;DHT22;6521;50.498;8.474;2022-07-03T07:57:51;20.93;59.93
12907;DHT22;6521;50.498;8.474;2022-07-03T08:00:22;20.99;60.01
12907;DHT22;6521;50.498;8.474;2022-07-03T08:02:52;21.06;59.35
12907;DHT22;6521;50.498;8.474;2022-07-03T08:05:41;21.27;56.28
12907;DHT22;6521;50.498;8.474;2022-07-03T08:08:16;21.45;54.31
12907;DHT22;6521;50.498;8.474;2022-07-03T08:10:48;21.69;52.07
12907;DHT22;6521;50.498;8.474;2022-07-03T08:13:19;21.84;52.14
12907;DHT22;6521;50.498;8.474;2022-07-03T08:15:51;21.89;50.17
12907;DHT22;6521;50.498;8.474;2022-07-03T08:18:22;21.99;51.37
12907;DHT22;6521;50.498;8.474;2022-07-03T08:20:53;22.24;50.72
12907;DHT22;6521;50.498;8.474;2022-07-03T08:23:24;22.32;50.43
12907;DHT22;6521;50.498;8.474;2022-07-03T08:25:55;22.39;48.72
12907;DHT22;6521;50.498;8.474;2022-07-03T08:28:27;22.51;49.56
12907;DHT22;6521;50.498;8.474;2022-07-03T08:30:58;22.60;49.46
12907;DHT22;6521;50.498;8.474;2022-07-03T08:33:29;22.74;49.60
12907;DHT22;6521;50.498;8.474;2022-07-03T08:35:59;22.88;49.96
12907;DHT22;6521;50.498;8.474;2022-07-03T08:38:32;23.07;47.29
12907;DHT22;6521;50.498;8.474;2022-07-03T08:41:06;23.18;46.74
12907;DHT22;6521;50.498;8.474;2022-07-03T08:43:38;23.31;48.60
12907;DHT22;6521;50.498;8.474;2022-07-03T08:46:10;23.43;45.89
12907;DHT22;6521;50.498;8.474;2022-07-03T08:48:42;23.48;47.07
12907;DHT22;6521;50.498;8.474;2022-07-03T08:51:14;23.58;46.85
12907;DHT22;6521;50.498;8.474;2022-07-03T08:53:47;23.71;47.27
12907;DHT22;6521;50.498;8.474;2022-07-03T08:56:18;23.92;45.60
12907;DHT22;6521;50.498;8.474;2022-07-03T08:58:49;24.16;45.79
12907;DHT22;6521;50.498;8.474;2022-07-03T09:01:20;24.32;44.16
12907;DHT22;6521;50.498;8.474;2022-07-03T09:03:53;24.54;44.04
12907;DHT22;6521;50.498;8.474;2022-07-03T09:06:24;24.80;43.75
12907;DHT22;6521;50.498;8.474;2022-07-03T09:08:56;24.92;44.67
12907;DHT22;6521;50.498;8.474;2022-07-03T09:11:27;25.12;43.30
12907;DHT22;6521;50.498;8.474;2022-07-03T09:13:58;25.26;41.77
12907;DHT22;6521;50.498;8.474;2022-07-03T09:16:28;25.38;41.16
12907;DHT22;6521;50.498;8.474;2022-07-03T09:18:59;25.44;41.35
12907;DHT22;6521;50.498;8.474;2022-07-03T09:21:41;25.71;42.24
12907;DHT22;6521;50.498;8.474;2022-07-03T09:24:11;25.91;40.73
12907;DHT22;6521;50.498;8.474;2022-07-03T09:26:51;25.98;41.20
12907;DHT22;6521;50.498;8.474;2022-07-03T09:29:22;26.23;40.96
12907;DHT22;6521;50.498;8.474;2022-07-03T09:31:54;26.67;39.59
12907;DHT22;6521;50.498;8.474;2022-07-03T09:34:26;26.98;39.43
12907;DHT22;6521;50.498;8.474;2022-07-03T09:36:57;27.21;37.94
12907;DHT22;6521;50.498;8.474;2022-07-03T09:39:29;27.50;38.59
12907;DHT22;6521;50.498;8.474;2022-07-03T09:44:34;28.18;37.03
12907;DHT22;6521;50.498;8.474;2022-07-03T09:49:59;28.68;34.64
12907;DHT22;6521;50.498;8.474;2022-07-03T09:52:33;28.91;35.09
12907;DHT22;6521;50.498;8.474;2022-07-03T10:00:23;29.51;33.50
12907;DHT22;6521;50.498;8.474;2022-07-03T10:05:32;29.26;32.18
12907;DHT22;6521;50.498;8.474;2022-07-03T10:10:48;29.82;30.78
12907;DHT22;6521;50.498;8.474;2022-07-03T10:13:19;29.94;31.54
12907;DHT22;6521;50.498;8.474;2022-07-03T10:15:50;30.40;31.49
12907;DHT22;6521;50.498;8.474;2022-07-03T10:18:22;30.64;32.10
12907;DHT22;6521;50.498;8.474;2022-07-03T10:20:57;30.33;31.08
12907;DHT22;6521;50.498;8.474;2022-07-03T10:23:31;30.50;30.53
12907;DHT22;6521;50.498;8.474;2022-07-03T10:26:02;30.79;29.64
12907;DHT22;6521;50.498;8.474;2022-07-03T10:28:33;30.63;30.42
12907;DHT22;6521;50.498;8.474;2022-07-03T10:31:04;30.49;30.91
12907;DHT22;6521;50.498;8.474;2022-07-03T10:33:35;30.55;30.40
12907;DHT22;6521;50.498;8.474;2022-07-03T10:36:09;30.52;30.26
12907;DHT22;6521;50.498;8.474;2022-07-03T10:38:41;30.66;30.29
12907;DHT22;6521;50.498;8.474;2022-07-03T10:41:23;30.59;29.54
12907;DHT22;6521;50.498;8.474;2022-07-03T10:44:14;30.28;30.70
12907;DHT22;6521;50.498;8.474;2022-07-03T10:47:04;30.59;30.12
12907;DHT22;6521;50.498;8.474;2022-07-03T10:49:35;30.74;29.96
12907;DHT22;6521;50.498;8.474;2022-07-03T10:52:06;30.88;29.23
12907;DHT22;6521;50.498;8.474;2022-07-03T10:54:49;30.57;30.96
12907;DHT22;6521;50.498;8.474;2022-07-03T10:57:20;30.67;30.13
12907;DHT22;6521;50.498;8.474;2022-07-03T11:02:41;30.52;28.40
12907;DHT22;6521;50.498;8.474;2022-07-03T11:05:19;30.66;28.81
12907;DHT22;6521;50.498;8.474;2022-07-03T11:13:16;29.71;28.67
12907;DHT22;6521;50.498;8.474;2022-07-03T11:15:48;29.92;30.49
12907;DHT22;6521;50.498;8.474;2022-07-03T11:26:22;31.27;27.74
12907;DHT22;6521;50.498;8.474;2022-07-03T11:28:53;31.25;27.20
12907;DHT22;6521;50.498;8.474;2022-07-03T11:31:24;31.35;29.43
12907;DHT22;6521;50.498;8.474;2022-07-03T11:34:00;31.76;29.97
12907;DHT22;6521;50.498;8.474;2022-07-03T11:36:33;31.88;28.47
12907;DHT22;6521;50.498;8.474;2022-07-03T11:39:12;32.06;28.13
12907;DHT22;6521;50.498;8.474;2022-07-03T11:41:44;32.03;27.17
12907;DHT22;6521;50.498;8.474;2022-07-03T11:44:17;31.70;26.11
12907;DHT22;6521;50.498;8.474;2022-07-03T11:46:50;31.93;27.11
12907;DHT22;6521;50.498;8.474;2022-07-03T11:49:22;31.99;27.26
12907;DHT22;6521;50.498;8.474;2022-07-03T11:51:57;31.93;27.36
12907;DHT22;6521;50.498;8.474;2022-07-03T11:57:19;31.80;27.28
12907;DHT22;6521;50.498;8.474;2022-07-03T11:59:54;31.29;27.10
12907;DHT22;6521;50.498;8.474;2022-07-03T12:02:49;31.62;28.69
12907;DHT22;6521;50.498;8.474;2022-07-03T12:05:20;31.96;27.77
12907;DHT22;6521;50.498;8.474;2022-07-03T12:08:06;32.02;25.80
12907;DHT22;6521;50.498;8.474;2022-07-03T12:10:41;32.05;26.94
12907;DHT22;6521;50.498;8.474;2022-07-03T12:13:21;32.06;26.87
12907;DHT22;6521;50.498;8.474;2022-07-03T12:15:53;32.10;26.85
12907;DHT22;6521;50.498;8.474;2022-07-03T12:18:24;32.38;26.77
12907;DHT22;6521;50.498;8.474;2022-07-03T12:21:04;32.79;26.25
12907;DHT22;6521;50.498;8.474;2022-07-03T12:23:46;32.98;26.89
12907;DHT22;6521;50.498;8.474;2022-07-03T12:26:30;33.01;26.88
12907;DHT22;6521;50.498;8.474;2022-07-03T12:29:09;33.09;26.16
12907;DHT22;6521;50.498;8.474;2022-07-03T12:31:42;33.01;25.16
12907;DHT22;6521;50.498;8.474;2022-07-03T12:34:15;33.16;26.11
12907;DHT22;6521;50.498;8.474;2022-07-03T12:36:57;33.34;25.87
12907;DHT22;6521;50.498;8.474;2022-07-03T12:39:45;33.39;24.12
12907;DHT22;6521;50.498;8.474;2022-07-03T12:47:28;32.91;25.22
12907;DHT22;6521;50.498;8.474;2022-07-03T12:50:04;33.09;25.66
12907;DHT22;6521;50.498;8.474;2022-07-03T12:52:53;33.04;23.99
12907;DHT22;6521;50.498;8.474;2022-07-03T12:55:33;33.15;24.89
12907;DHT22;6521;50.498;8.474;2022-07-03T12:58:15;32.95;23.96
12907;DHT22;6521;50.498;8.474;2022-07-03T13:01:04;33.09;25.98
12907;DHT22;6521;50.498;8.474;2022-07-03T13:03:35;32.72;25.20
12907;DHT22;6521;50.498;8.474;2022-07-03T13:06:13;32.57;24.71
12907;DHT22;6521;50.498;8.474;2022-07-03T13:08:59;33.01;25.48
12907;DHT22;6521;50.498;8.474;2022-07-03T13:11:33;33.15;25.70
12907;DHT22;6521;50.498;8.474;2022-07-03T13:14:06;33.43;24.48
12907;DHT22;6521;50.498;8.474;2022-07-03T13:16:44;33.30;24.77
12907;DHT22;6521;50.498;8.474;2022-07-03T13:19:17;33.19;24.28
12907;DHT22;6521;50.498;8.474;2022-07-03T13:21:50;33.18;24.35
12907;DHT22;6521;50.498;8.474;2022-07-03T13:24:22;32.78;24.57
12907;DHT22;6521;50.498;8.474;2022-07-03T13:26:53;32.13;24.94
12907;DHT22;6521;50.498;8.474;2022-07-03T13:29:24;31.80;26.18
12907;DHT22;6521;50.498;8.474;2022-07-03T13:31:55;32.24;25.03
12907;DHT22;6521;50.498;8.474;2022-07-03T13:34:28;32.50;24.88
12907;DHT22;6521;50.498;8.474;2022-07-03T13:37:00;32.14;25.18
12907;DHT22;6521;50.498;8.474;2022-07-03T13:39:30;31.79;25.29
12907;DHT22;6521;50.498;8.474;2022-07-03T13:42:01;31.62;25.73
12907;DHT22;6521;50.498;8.474;2022-07-03T13:44:35;32.12;24.15
12907;DHT22;6521;50.498;8.474;2022-07-03T13:47:05;32.60;25.19
12907;DHT22;6521;50.498;8.474;2022-07-03T13:49:36;32.96;25.89
12907;DHT22;6521;50.498;8.474;2022-07-03T13:52:07;32.95;22.50
12907;DHT22;6521;50.498;8.474;2022-07-03T13:54:38;32.64;23.12
12907;DHT22;6521;50.498;8.474;2022-07-03T13:57:08;32.91;23.92
12907;DHT22;6521;50.498;8.474;2022-07-03T13:59:40;33.01;22.10
12907;DHT22;6521;50.498;8.474;2022-07-03T14:02:11;32.82;22.62
12907;DHT22;6521;50.498;8.474;2022-07-03T14:04:41;32.50;22.10
12907;DHT22;6521;50.498;8.474;2022-07-03T14:07:12;32.48;21.83
12907;DHT22;6521;50.498;8.474;2022-07-03T14:09:43;32.65;21.65
12907;DHT22;6521;50.498;8.474;2022-07-03T14:12:14;32.45;21.77
12907;DHT22;6521;50.498;8.474;2022-07-03T14:14:44;32.12;22.08
12907;DHT22;6521;50.498;8.474;2022-07-03T14:17:15;32.34;21.83
12907;DHT22;6521;50.498;8.474;2022-07-03T14:19:45;32.67;21.56
12907;DHT22;6521;50.498;8.474;2022-07-03T14:22:16;32.44;23.85
12907;DHT22;6521;50.498;8.474;2022-07-03T14:24:47;32.91;23.24
12907;DHT22;6521;50.498;8.474;2022-07-03T14:27:17;32.72;21.88
12907;DHT22;6521;50.498;8.474;2022-07-03T14:30:07;32.71;21.65
12907;DHT22;6521;50.498;8.474;2022-07-03T14:33:02;32.26;23.05
12907;DHT22;6521;50.498;8.474;2022-07-03T14:35:33;32.21;23.74
12907;DHT22;6521;50.498;8.474;2022-07-03T14:38:03;32.31;23.51
12907;DHT22;6521;50.498;8.474;2022-07-03T14:40:34;32.45;21.95
12907;DHT22;6521;50.498;8.474;2022-07-03T14:43:05;32.21;22.18
12907;DHT22;6521;50.498;8.474;2022-07-03T14:45:36;32.36;23.72
12907;DHT22;6521;50.498;8.474;2022-07-03T14:48:06;32.12;23.52
12907;DHT22;6521;50.498;8.474;2022-07-03T14:50:37;31.86;23.38
12907;DHT22;6521;50.498;8.474;2022-07-03T14:53:07;31.97;23.95
12907;DHT22;6521;50.498;8.474;2022-07-03T14:55:40;32.19;23.99
12907;DHT22;6521;50.498;8.474;2022-07-03T14:58:19;32.26;24.35
12907;DHT22;6521;50.498;8.474;2022-07-03T15:00:54;32.10;23.46
12907;DHT22;6521;50.498;8.474;2022-07-03T15:03:32;31.97;23.43
12907;DHT22;6521;50.498;8.474;2022-07-03T15:06:07;32.13;24.26
12907;DHT22;6521;50.498;8.474;2022-07-03T15:08:51;32.20;23.84
12907;DHT22;6521;50.498;8.474;2022-07-03T15:11:33;32.28;22.81
12907;DHT22;6521;50.498;8.474;2022-07-03T15:14:25;32.13;23.56
12907;DHT22;6521;50.498;8.474;2022-07-03T15:16:58;31.85;23.70
12907;DHT22;6521;50.498;8.474;2022-07-03T15:19:30;31.93;24.27
12907;DHT22;6521;50.498;8.474;2022-07-03T15:22:04;31.97;23.97
12907;DHT22;6521;50.498;8.474;2022-07-03T15:24:36;31.97;23.88
12907;DHT22;6521;50.498;8.474;2022-07-03T15:27:07;31.85;23.73
12907;DHT22;6521;50.498;8.474;2022-07-03T15:29:38;31.79;24.71
12907;DHT22;6521;50.498;8.474;2022-07-03T15:32:09;31.79;24.06
12907;DHT22;6521;50.498;8.474;2022-07-03T15:34:42;31.53;23.71
12907;DHT22;6521;50.498;8.474;2022-07-03T15:42:41;31.58;23.91
12907;DHT22;6521;50.498;8.474;2022-07-03T15:45:34;31.85;24.43
12907;DHT22;6521;50.498;8.474;2022-07-03T15:48:19;31.82;23.98
12907;DHT22;6521;50.498;8.474;2022-07-03T15:51:15;31.66;24.26
12907;DHT22;6521;50.498;8.474;2022-07-03T15:53:50;31.68;24.26
12907;DHT22;6521;50.498;8.474;2022-07-03T15:56:25;31.62;25.20
12907;DHT22;6521;50.498;8.474;2022-07-03T15:59:02;31.79;25.13
12907;DHT22;6521;50.498;8.474;2022-07-03T16:01:39;31.65;24.69
12907;DHT22;6521;50.498;8.474;2022-07-03T16:04:36;31.29;24.33
12907;DHT22;6521;50.498;8.474;2022-07-03T16:07:10;31.27;24.33
12907;DHT22;6521;50.498;8.474;2022-07-03T16:09:42;30.91;25.63
12907;DHT22;6521;50.498;8.474;2022-07-03T16:12:14;30.97;25.58
12907;DHT22;6521;50.498;8.474;2022-07-03T16:14:51;31.08;25.30
12907;DHT22;6521;50.498;8.474;2022-07-03T16:17:22;30.95;25.84
12907;DHT22;6521;50.498;8.474;2022-07-03T16:19:53;30.94;25.23
12907;DHT22;6521;50.498;8.474;2022-07-03T16:22:26;30.81;25.10
12907;DHT22;6521;50.498;8.474;2022-07-03T16:24:58;30.64;25.35
12907;DHT22;6521;50.498;8.474;2022-07-03T16:27:31;30.49;25.60
12907;DHT22;6521;50.498;8.474;2022-07-03T16:30:04;30.15;26.18
12907;DHT22;6521;50.498;8.474;2022-07-03T16:32:38;29.98;27.19
12907;DHT22;6521;50.498;8.474;2022-07-03T16:35:34;29.89;26.33
12907;DHT22;6521;50.498;8.474;2022-07-03T16:38:10;29.88;27.13
12907;DHT22;6521;50.498;8.474;2022-07-03T16:40:42;29.85;27.70
12907;DHT22;6521;50.498;8.474;2022-07-03T16:43:14;29.63;27.26
12907;DHT22;6521;50.498;8.474;2022-07-03T16:45:48;29.57;27.92
12907;DHT22;6521;50.498;8.474;2022-07-03T16:48:24;29.81;28.28
12907;DHT22;6521;50.498;8.474;2022-07-03T16:50:59;29.74;27.58
12907;DHT22;6521;50.498;8.474;2022-07-03T16:53:37;29.68;26.85
12907;DHT22;6521;50.498;8.474;2022-07-03T16:56:10;29.73;27.30
12907;DHT22;6521;50.498;8.474;2022-07-03T16:58:43;29.78;27.23
12907;DHT22;6521;50.498;8.474;2022-07-03T17:01:14;29.78;27.94
12907;DHT22;6521;50.498;8.474;2022-07-03T17:03:46;29.78;27.69
12907;DHT22;6521;50.498;8.474;2022-07-03T17:06:18;29.65;27.59
12907;DHT22;6521;50.498;8.474;2022-07-03T17:08:49;29.60;27.99
12907;DHT22;6521;50.498;8.474;2022-07-03T17:11:20;29.46;28.77
12907;DHT22;6521;50.498;8.474;2022-07-03T17:13:51;29.40;28.17
12907;DHT22;6521;50.498;8.474;2022-07-03T17:16:26;29.33;28.31
12907;DHT22;6521;50.498;8.474;2022-07-03T17:19:00;29.26;28.58
12907;DHT22;6521;50.498;8.474;2022-07-03T17:21:38;29.24;28.97
12907;DHT22;6521;50.498;8.474;2022-07-03T17:24:13;29.03;29.50
12907;DHT22;6521;50.498;8.474;2022-07-03T17:26:47;29.09;29.32
12907;DHT22;6521;50.498;8.474;2022-07-03T17:29:20;29.00;29.71
12907;DHT22;6521;50.498;8.474;2022-07-03T17:31:53;28.96;29.70
12907;DHT22;6521;50.498;8.474;2022-07-03T17:34:27;28.82;30.23
12907;DHT22;6521;50.498;8.474;2022-07-03T17:36:59;28.76;30.90
12907;DHT22;6521;50.498;8.474;2022-07-03T17:39:30;28.61;29.62